createdAt,value
2019-03-24T00:00:26.412Z,30.53
2019-03-24T00:02:57.827Z,28.17
2019-03-24T00:05:29.004Z,29.60
2019-03-24T00:08:00.378Z,29.10
2019-03-24T00:10:31.663Z,28.73
2019-03-24T00:13:02.975Z,29.30
2019-03-24T00:15:34.409Z,26.80
2019-03-24T00:18:05.843Z,26.67
2019-03-24T00:20:37.079Z,28.27
2019-03-24T00:23:08.493Z,27.30
2019-03-24T00:25:39.969Z,29.10
2019-03-24T00:28:11.240Z,27.27
2019-03-24T00:30:42.660Z,28.47
2019-03-24T00:33:14.048Z,26.47
2019-03-24T00:35:45.580Z,30.90
2019-03-24T00:38:16.951Z,27.67
2019-03-24T00:40:48.299Z,28.17
2019-03-24T00:43:19.605Z,26.70
2019-03-24T00:45:51.027Z,27.53
2019-03-24T00:48:22.317Z,26.07
2019-03-24T00:50:53.787Z,26.20
2019-03-24T00:53:25.157Z,25.77
2019-03-24T00:55:56.467Z,26.80
2019-03-24T00:58:27.739Z,25.53
2019-03-24T01:00:59.823Z,26.13
2019-03-24T01:03:31.169Z,25.20
2019-03-24T01:06:02.550Z,24.30
2019-03-24T01:08:33.770Z,24.50
2019-03-24T01:11:05.129Z,24.80
2019-03-24T01:13:36.419Z,24.93
2019-03-24T01:16:07.989Z,25.97
2019-03-24T01:18:39.513Z,25.97
2019-03-24T01:21:10.803Z,25.70
2019-03-24T01:23:42.082Z,25.80
2019-03-24T01:26:13.477Z,25.77
2019-03-24T01:28:44.775Z,23.07
2019-03-24T01:31:16.119Z,23.77
2019-03-24T01:33:48.284Z,22.07
2019-03-24T01:36:19.587Z,21.53
2019-03-24T01:38:50.778Z,20.80
2019-03-24T01:41:21.999Z,21.27
2019-03-24T01:43:53.363Z,22.00
2019-03-24T01:46:24.724Z,20.83
2019-03-24T01:48:56.659Z,21.13
2019-03-24T01:51:28.029Z,22.97
2019-03-24T01:53:59.304Z,22.43
2019-03-24T01:56:30.548Z,23.83
2019-03-24T01:59:01.746Z,20.90
2019-03-24T02:01:32.991Z,20.37
2019-03-24T02:04:04.209Z,21.53
2019-03-24T02:06:35.333Z,22.27
2019-03-24T02:09:09.144Z,20.37
2019-03-24T02:11:40.353Z,21.43
2019-03-24T02:14:11.615Z,22.27
2019-03-24T02:16:42.928Z,21.60
2019-03-24T02:19:14.091Z,20.13
2019-03-24T02:21:45.447Z,21.37
2019-03-24T02:24:16.768Z,22.63
2019-03-24T02:26:48.049Z,21.40
2019-03-24T02:29:19.398Z,21.70
2019-03-24T02:31:50.723Z,22.23
2019-03-24T02:34:22.114Z,20.20
2019-03-24T02:36:53.393Z,21.23
2019-03-24T02:39:24.787Z,22.30
2019-03-24T02:41:56.100Z,22.53
2019-03-24T02:44:27.330Z,23.97
2019-03-24T02:46:58.615Z,24.53
2019-03-24T02:49:29.835Z,24.50
2019-03-24T02:52:01.181Z,24.73
2019-03-24T02:54:32.468Z,22.67
2019-03-24T02:57:04.663Z,20.83
2019-03-24T02:59:35.923Z,23.47
2019-03-24T03:02:07.553Z,21.77
2019-03-24T03:04:38.765Z,21.40
2019-03-24T03:07:10.104Z,20.17
2019-03-24T03:09:41.348Z,21.50
2019-03-24T03:12:12.695Z,19.97
2019-03-24T03:14:44.067Z,19.07
2019-03-24T03:17:15.391Z,18.87
2019-03-24T03:19:46.599Z,20.30
2019-03-24T03:22:18.303Z,19.40
2019-03-24T03:24:49.589Z,18.97
2019-03-24T03:27:20.879Z,18.20
2019-03-24T03:29:52.292Z,18.93
2019-03-24T03:32:23.650Z,18.17
2019-03-24T03:34:54.921Z,17.73
2019-03-24T03:37:26.291Z,17.70
2019-03-24T03:39:58.474Z,16.70
2019-03-24T03:42:30.265Z,17.83
2019-03-24T03:45:01.525Z,18.37
2019-03-24T03:47:32.919Z,19.00
2019-03-24T03:50:04.633Z,18.00
2019-03-24T03:52:36.145Z,16.93
2019-03-24T03:55:08.731Z,16.80
2019-03-24T03:57:40.010Z,17.20
2019-03-24T04:00:12.599Z,17.37
2019-03-24T04:02:43.880Z,17.30
2019-03-24T04:05:15.255Z,16.67
2019-03-24T04:07:46.542Z,16.97
2019-03-24T04:10:17.935Z,16.53
2019-03-24T04:12:49.085Z,18.27
2019-03-24T04:15:20.384Z,17.57
2019-03-24T04:17:51.665Z,17.77
2019-03-24T04:20:23.080Z,17.47
2019-03-24T04:22:54.326Z,18.23
2019-03-24T04:25:25.880Z,17.83
2019-03-24T04:27:57.224Z,17.77
2019-03-24T04:30:28.839Z,18.70
2019-03-24T04:33:00.174Z,18.40
2019-03-24T04:35:31.809Z,17.03
2019-03-24T04:38:03.591Z,18.40
2019-03-24T04:40:35.138Z,19.30
2019-03-24T04:43:06.382Z,17.57
2019-03-24T04:45:37.823Z,19.37
2019-03-24T04:48:09.037Z,18.80
2019-03-24T04:50:40.412Z,18.90
2019-03-24T04:53:11.873Z,19.40
2019-03-24T04:55:44.326Z,18.60
2019-03-24T04:58:18.129Z,18.77
2019-03-24T05:00:49.784Z,18.00
2019-03-24T05:03:21.442Z,18.23
2019-03-24T05:05:53.774Z,17.03
2019-03-24T05:08:25.638Z,16.40
2019-03-24T05:10:56.910Z,17.77
2019-03-24T05:13:28.638Z,17.17
2019-03-24T05:16:00.149Z,18.30
2019-03-24T05:18:31.412Z,17.97
2019-03-24T05:21:02.958Z,17.37
2019-03-24T05:23:34.257Z,17.50
2019-03-24T05:26:06.309Z,19.40
2019-03-24T05:28:37.905Z,19.17
2019-03-24T05:31:09.284Z,19.90
2019-03-24T05:33:40.802Z,18.50
2019-03-24T05:36:12.101Z,17.00
2019-03-24T05:38:43.531Z,17.07
2019-03-24T05:41:15.386Z,15.17
2019-03-24T05:43:46.801Z,14.10
2019-03-24T05:46:18.362Z,13.20
2019-03-24T05:48:49.704Z,13.17
2019-03-24T05:51:21.159Z,13.40
2019-03-24T05:53:52.579Z,12.57
2019-03-24T05:56:23.980Z,11.23
2019-03-24T05:58:55.771Z,12.33
2019-03-24T06:01:27.609Z,11.80
2019-03-24T06:04:00.777Z,11.13
2019-03-24T06:06:31.981Z,11.67
2019-03-24T06:09:04.916Z,10.87
2019-03-24T06:11:36.704Z,10.57
2019-03-24T06:14:08.241Z,11.87
2019-03-24T06:16:39.544Z,11.60
2019-03-24T06:19:11.464Z,11.70
2019-03-24T06:21:43.106Z,12.20
2019-03-24T06:24:14.499Z,11.67
2019-03-24T06:26:45.797Z,10.63
2019-03-24T06:29:17.240Z,12.23
2019-03-24T06:31:48.775Z,11.03
2019-03-24T06:34:20.048Z,11.40
2019-03-24T06:36:51.603Z,11.33
2019-03-24T06:39:22.851Z,11.43
2019-03-24T06:41:54.215Z,10.70
2019-03-24T06:44:25.576Z,11.47
2019-03-24T06:46:56.895Z,11.47
2019-03-24T06:49:28.377Z,11.07
2019-03-24T06:51:59.712Z,10.27
2019-03-24T06:54:31.264Z,11.03
2019-03-24T06:57:02.555Z,11.03
2019-03-24T06:59:34.021Z,10.47
2019-03-24T07:02:05.355Z,10.00
2019-03-24T07:04:36.654Z,10.17
2019-03-24T07:07:08.152Z,9.90
2019-03-24T07:09:39.446Z,10.23
2019-03-24T07:12:10.790Z,10.80
2019-03-24T07:14:42.074Z,8.70
2019-03-24T07:17:13.411Z,8.77
2019-03-24T07:19:44.656Z,9.00
2019-03-24T07:22:16.117Z,8.47
2019-03-24T07:24:47.425Z,9.50
2019-03-24T07:27:19.067Z,8.70
2019-03-24T07:29:50.398Z,9.57
2019-03-24T07:32:21.784Z,10.23
2019-03-24T07:34:53.372Z,8.83
2019-03-24T07:37:24.739Z,10.03
2019-03-24T07:39:56.209Z,9.33
2019-03-24T07:42:27.832Z,10.00
2019-03-24T07:44:59.367Z,8.83
2019-03-24T07:47:30.624Z,9.60
2019-03-24T07:50:01.926Z,8.30
2019-03-24T07:52:33.286Z,7.93
2019-03-24T07:55:05.074Z,7.27
2019-03-24T07:57:36.420Z,7.47
2019-03-24T08:00:09.593Z,7.87
2019-03-24T08:02:51.018Z,7.73
2019-03-24T08:05:18.059Z,8.77
2019-03-24T08:07:49.518Z,7.90
2019-03-24T08:10:20.887Z,7.53
2019-03-24T08:12:52.315Z,7.43
2019-03-24T08:15:23.889Z,6.60
2019-03-24T08:17:55.440Z,6.33
2019-03-24T08:20:26.974Z,5.60
2019-03-24T08:22:59.418Z,4.40
2019-03-24T08:25:30.898Z,4.80
2019-03-24T08:28:02.370Z,5.07
2019-03-24T08:30:37.276Z,4.93
2019-03-24T08:33:09.059Z,5.60
2019-03-24T08:35:40.471Z,5.87
2019-03-24T08:38:11.988Z,5.37
2019-03-24T08:40:43.325Z,4.27
2019-03-24T08:43:14.962Z,4.57
2019-03-24T08:45:46.722Z,4.80
2019-03-24T08:48:18.125Z,4.87
2019-03-24T08:50:49.510Z,5.17
2019-03-24T08:53:23.012Z,4.90
2019-03-24T08:55:54.847Z,4.80
2019-03-24T08:58:26.877Z,6.60
2019-03-24T09:00:58.667Z,5.80
2019-03-24T09:03:32.638Z,5.40
2019-03-24T09:06:04.646Z,5.37
2019-03-24T09:08:36.631Z,5.07
2019-03-24T09:11:08.527Z,5.17
2019-03-24T09:13:40.420Z,5.23
2019-03-24T09:16:12.396Z,5.33
2019-03-24T09:18:52.514Z,5.43
2019-03-24T09:21:19.547Z,5.23
2019-03-24T09:23:50.925Z,5.13
2019-03-24T09:26:23.190Z,5.30
2019-03-24T09:28:55.011Z,4.80
2019-03-24T09:31:27.012Z,5.10
2019-03-24T09:33:59.124Z,4.43
2019-03-24T09:36:30.779Z,4.93
2019-03-24T09:39:02.245Z,5.37
2019-03-24T09:41:33.879Z,4.77
2019-03-24T09:44:05.384Z,4.97
2019-03-24T09:46:37.160Z,3.60
2019-03-24T09:49:08.607Z,4.73
2019-03-24T09:51:40.084Z,4.70
2019-03-24T09:54:11.529Z,4.77
2019-03-24T09:56:43.002Z,5.50
2019-03-24T09:59:14.280Z,4.20
2019-03-24T10:01:45.574Z,4.43
2019-03-24T10:04:17.488Z,4.57
2019-03-24T10:06:49.360Z,4.43
2019-03-24T10:09:20.737Z,4.30
2019-03-24T10:11:52.218Z,3.77
2019-03-24T10:14:23.679Z,4.23
2019-03-24T10:16:55.757Z,3.60
2019-03-24T10:19:27.240Z,3.40
2019-03-24T10:21:59.050Z,4.20
2019-03-24T10:24:30.267Z,3.80
2019-03-24T10:27:01.775Z,4.27
2019-03-24T10:29:33.196Z,4.03
2019-03-24T10:32:04.543Z,3.90
2019-03-24T10:34:35.888Z,4.30
2019-03-24T10:37:07.348Z,4.20
2019-03-24T10:39:41.124Z,4.20
2019-03-24T10:42:12.690Z,4.37
2019-03-24T10:44:44.105Z,4.33
2019-03-24T10:47:15.548Z,4.43
2019-03-24T10:49:46.884Z,4.50
2019-03-24T10:52:18.166Z,4.10
2019-03-24T10:54:49.504Z,3.93
2019-03-24T10:57:21.079Z,4.97
2019-03-24T10:59:52.414Z,4.30
2019-03-24T11:02:23.875Z,4.43
2019-03-24T11:04:55.598Z,4.53
2019-03-24T11:07:27.114Z,4.13
2019-03-24T11:09:58.514Z,3.87
2019-03-24T11:12:29.874Z,4.07
2019-03-24T11:15:01.930Z,4.10
2019-03-24T11:17:33.469Z,4.37
2019-03-24T11:20:05.809Z,4.17
2019-03-24T11:22:37.372Z,4.30
2019-03-24T11:25:11.069Z,4.57
2019-03-24T11:27:42.500Z,4.50
2019-03-24T11:30:16.475Z,4.00
2019-03-24T11:32:47.993Z,3.50
2019-03-24T11:35:19.498Z,3.83
2019-03-24T11:37:50.978Z,3.87
2019-03-24T11:40:22.274Z,3.43
2019-03-24T11:42:53.839Z,4.43
2019-03-24T11:45:25.245Z,4.43
2019-03-24T11:47:56.849Z,4.27
2019-03-24T11:50:28.304Z,4.00
2019-03-24T11:52:59.652Z,5.10
2019-03-24T11:55:31.024Z,3.60
2019-03-24T11:58:06.035Z,3.70
2019-03-24T12:00:40.828Z,3.77
2019-03-24T12:03:13.094Z,3.73
2019-03-24T12:05:44.889Z,4.13
2019-03-24T12:08:17.235Z,3.93
2019-03-24T12:10:48.582Z,4.17
2019-03-24T12:13:20.068Z,4.30
2019-03-24T12:15:51.351Z,7.30
2019-03-24T12:18:22.842Z,3.77
2019-03-24T12:20:54.326Z,3.93
2019-03-24T12:23:25.724Z,3.43
2019-03-24T12:25:57.058Z,3.70
2019-03-24T12:28:28.416Z,4.07
2019-03-24T12:30:59.839Z,4.47
2019-03-24T12:33:31.264Z,4.10
2019-03-24T12:36:02.657Z,4.30
2019-03-24T12:38:34.127Z,3.87
2019-03-24T12:41:05.788Z,4.33
2019-03-24T12:43:37.169Z,4.37
2019-03-24T12:46:08.634Z,4.50
2019-03-24T12:48:39.900Z,4.27
2019-03-24T12:51:11.390Z,4.03
2019-03-24T12:53:42.900Z,4.40
2019-03-24T12:56:14.258Z,3.83
2019-03-24T12:58:45.579Z,4.33
2019-03-24T13:01:17.400Z,4.10
2019-03-24T13:03:48.808Z,3.87
2019-03-24T13:06:20.178Z,4.37
2019-03-24T13:08:51.944Z,4.10
2019-03-24T13:11:23.441Z,3.90
2019-03-24T13:13:54.799Z,3.67
2019-03-24T13:16:26.293Z,4.27
2019-03-24T13:18:57.554Z,3.80
2019-03-24T13:21:29.011Z,3.67
2019-03-24T13:24:00.614Z,3.60
2019-03-24T13:26:32.103Z,5.40
2019-03-24T13:29:03.677Z,4.43
2019-03-24T13:31:35.091Z,3.50
2019-03-24T13:34:06.632Z,4.90
2019-03-24T13:36:37.958Z,4.30
2019-03-24T13:39:09.933Z,3.90
2019-03-24T13:41:41.465Z,4.70
2019-03-24T13:44:12.738Z,4.10
2019-03-24T13:46:44.684Z,4.37
2019-03-24T13:49:16.127Z,3.60
2019-03-24T13:51:47.794Z,4.00
2019-03-24T13:54:19.114Z,3.90
2019-03-24T13:56:50.533Z,3.90
2019-03-24T13:59:22.028Z,4.63
2019-03-24T14:01:53.373Z,4.20
2019-03-24T14:04:24.735Z,3.57
2019-03-24T14:06:56.610Z,4.03
2019-03-24T14:09:28.078Z,4.17
2019-03-24T14:11:59.743Z,3.77
2019-03-24T14:14:31.319Z,4.07
2019-03-24T14:17:02.860Z,3.60
2019-03-24T14:19:34.434Z,3.60
2019-03-24T14:22:06.304Z,3.30
2019-03-24T14:24:37.634Z,4.00
2019-03-24T14:27:08.948Z,4.20
2019-03-24T14:29:40.394Z,3.63
2019-03-24T14:32:11.968Z,4.27
2019-03-24T14:34:43.359Z,4.10
2019-03-24T14:37:14.880Z,4.07
2019-03-24T14:39:46.338Z,3.70
2019-03-24T14:42:17.889Z,3.83
2019-03-24T14:44:49.307Z,3.77
2019-03-24T14:47:20.738Z,3.80
2019-03-24T14:49:52.330Z,3.83
2019-03-24T14:52:23.824Z,3.60
2019-03-24T14:54:55.139Z,3.53
2019-03-24T14:57:26.470Z,3.30
2019-03-24T14:59:58.110Z,3.00
2019-03-24T15:02:29.514Z,3.43
2019-03-24T15:05:00.885Z,3.83
2019-03-24T15:07:32.441Z,3.17
2019-03-24T15:10:04.076Z,4.20
2019-03-24T15:12:35.479Z,4.07
2019-03-24T15:15:07.704Z,3.90
2019-03-24T15:17:39.178Z,3.53
2019-03-24T15:20:10.950Z,3.83
2019-03-24T15:22:42.395Z,4.20
2019-03-24T15:25:14.184Z,4.10
2019-03-24T15:27:45.604Z,3.33
2019-03-24T15:30:17.703Z,4.20
2019-03-24T15:32:49.575Z,4.00
2019-03-24T15:35:20.994Z,7.00
2019-03-24T15:37:52.798Z,4.90
2019-03-24T15:40:24.694Z,3.50
2019-03-24T15:42:56.032Z,3.87
2019-03-24T15:45:27.440Z,3.63
2019-03-24T15:47:58.944Z,3.80
2019-03-24T15:50:30.604Z,3.70
2019-03-24T15:53:02.198Z,3.63
2019-03-24T15:55:34.254Z,3.93
2019-03-24T15:58:05.969Z,3.90
2019-03-24T16:00:47.670Z,3.73
2019-03-24T16:03:19.374Z,3.73
2019-03-24T16:05:50.979Z,3.50
2019-03-24T16:08:22.528Z,3.60
2019-03-24T16:10:53.924Z,4.20
2019-03-24T16:13:25.525Z,4.13
2019-03-24T16:15:58.463Z,3.57
2019-03-24T16:18:30.250Z,4.13
2019-03-24T16:21:01.745Z,3.90
2019-03-24T16:23:33.102Z,5.00
2019-03-24T16:26:06.893Z,5.87
2019-03-24T16:28:38.424Z,5.20
2019-03-24T16:31:11.068Z,4.80
2019-03-24T16:33:42.576Z,4.23
2019-03-24T16:36:14.058Z,3.73
2019-03-24T16:38:49.123Z,4.40
2019-03-24T16:41:19.058Z,4.07
2019-03-24T16:43:50.612Z,4.57
2019-03-24T16:46:21.984Z,4.47
2019-03-24T16:48:53.499Z,4.33
2019-03-24T16:51:25.237Z,5.43
2019-03-24T16:53:56.827Z,4.63
2019-03-24T16:56:30.958Z,4.33
2019-03-24T16:59:02.491Z,4.70
2019-03-24T17:01:35.013Z,4.83
2019-03-24T17:04:10.544Z,5.50
2019-03-24T17:06:44.737Z,5.03
2019-03-24T17:09:17.793Z,7.43
2019-03-24T17:11:57.530Z,17.77
2019-03-24T17:14:29.044Z,13.33
2019-03-24T17:17:03.859Z,11.77
2019-03-24T17:19:36.478Z,10.17
2019-03-24T17:22:11.254Z,9.77
2019-03-24T17:24:42.902Z,8.30
2019-03-24T17:27:17.333Z,8.27
2019-03-24T17:29:51.794Z,10.43
2019-03-24T17:32:23.629Z,9.43
2019-03-24T17:34:57.879Z,12.30
2019-03-24T17:37:30.294Z,10.13
2019-03-24T17:40:02.834Z,10.17
2019-03-24T17:42:35.379Z,22.00
2019-03-24T17:45:08.119Z,17.57
2019-03-24T17:47:40.749Z,11.17
2019-03-24T17:50:16.624Z,13.53
2019-03-24T17:52:52.698Z,13.13
2019-03-24T17:55:30.964Z,11.57
2019-03-24T17:58:02.883Z,16.23
2019-03-24T18:00:46.674Z,19.33
2019-03-24T18:03:18.215Z,20.27
2019-03-24T18:05:50.769Z,23.67
2019-03-24T18:08:23.264Z,22.30
2019-03-24T18:10:58.318Z,22.07
2019-03-24T18:13:32.839Z,22.50
2019-03-24T18:16:04.277Z,19.33
2019-03-24T18:18:39.929Z,16.97
2019-03-24T18:21:13.818Z,17.63
2019-03-24T18:23:50.968Z,16.40
2019-03-24T18:26:22.478Z,15.43
2019-03-24T18:28:54.220Z,15.30
2019-03-24T18:31:28.400Z,16.33
2019-03-24T18:34:01.899Z,13.33
2019-03-24T18:36:36.458Z,12.93
2019-03-24T18:39:11.985Z,12.03
2019-03-24T18:41:45.048Z,13.17
2019-03-24T18:44:18.680Z,13.60
2019-03-24T18:46:52.175Z,12.93
2019-03-24T18:49:24.794Z,14.53
2019-03-24T18:52:00.590Z,14.63
2019-03-24T18:54:34.715Z,13.83
2019-03-24T18:57:07.395Z,16.00
2019-03-24T18:59:49.538Z,25.57
2019-03-24T19:02:24.062Z,24.63
2019-03-24T19:05:00.354Z,17.60
2019-03-24T19:07:33.071Z,16.57
2019-03-24T19:10:10.169Z,19.80
2019-03-24T19:12:43.838Z,29.77
2019-03-24T19:15:20.134Z,28.70
2019-03-24T19:17:53.869Z,29.47
2019-03-24T19:20:25.268Z,34.67
2019-03-24T19:23:01.778Z,35.27
2019-03-24T19:25:42.799Z,33.10
2019-03-24T19:28:15.710Z,27.27
2019-03-24T19:30:49.220Z,22.83
2019-03-24T19:33:23.423Z,20.30
2019-03-24T19:36:01.959Z,22.03
2019-03-24T19:38:34.338Z,16.87
2019-03-24T19:41:09.128Z,25.43
2019-03-24T19:43:42.840Z,21.70
2019-03-24T19:46:14.703Z,21.27
2019-03-24T19:48:47.091Z,19.90
2019-03-24T19:51:21.100Z,25.97
2019-03-24T19:53:57.203Z,27.40
2019-03-24T19:56:28.624Z,24.90
2019-03-24T19:59:02.088Z,21.40
2019-03-24T20:01:39.681Z,21.33
2019-03-24T20:04:12.278Z,18.17
2019-03-24T20:06:47.914Z,17.40
2019-03-24T20:09:19.445Z,17.13
2019-03-24T20:11:54.812Z,17.60
2019-03-24T20:14:30.069Z,19.27
2019-03-24T20:17:01.471Z,17.10
2019-03-24T20:19:36.454Z,16.17
2019-03-24T20:22:14.135Z,13.80
2019-03-24T20:24:51.523Z,17.90
2019-03-24T20:27:30.851Z,22.57
2019-03-24T20:30:07.415Z,19.10
2019-03-24T20:32:43.306Z,21.53
2019-03-24T20:35:18.069Z,23.20
2019-03-24T20:37:51.783Z,23.40
2019-03-24T20:40:23.435Z,22.00
2019-03-24T20:42:55.294Z,20.00
2019-03-24T20:45:26.800Z,20.17
2019-03-24T20:48:02.518Z,18.87
2019-03-24T20:50:40.163Z,17.77
2019-03-24T20:53:18.472Z,17.20
2019-03-24T20:55:50.450Z,18.70
2019-03-24T20:58:23.024Z,18.63
2019-03-24T21:00:54.448Z,19.47
2019-03-24T21:03:25.921Z,19.37
2019-03-24T21:05:57.378Z,19.17
2019-03-24T21:08:31.645Z,20.10
2019-03-24T21:11:04.504Z,21.90
2019-03-24T21:13:35.994Z,21.90
2019-03-24T21:16:09.824Z,22.53
2019-03-24T21:18:41.260Z,23.00
2019-03-24T21:21:12.549Z,22.63
2019-03-24T21:23:43.778Z,22.50
2019-03-24T21:26:15.245Z,20.40
2019-03-24T21:28:46.658Z,19.47
2019-03-24T21:31:18.015Z,22.27
2019-03-24T21:33:49.318Z,22.57
2019-03-24T21:36:22.125Z,25.37
2019-03-24T21:38:53.549Z,27.00
2019-03-24T21:41:24.942Z,27.23
2019-03-24T21:43:56.529Z,26.10
2019-03-24T21:46:27.790Z,25.77
2019-03-24T21:48:59.064Z,25.13
2019-03-24T21:51:30.322Z,24.67
2019-03-24T21:54:02.494Z,25.20
2019-03-24T21:56:34.019Z,24.23
2019-03-24T21:59:05.342Z,23.27
2019-03-24T22:01:36.675Z,23.73
2019-03-24T22:04:08.061Z,23.07
2019-03-24T22:06:40.004Z,21.97
2019-03-24T22:09:11.621Z,22.43
2019-03-24T22:11:42.859Z,21.20
2019-03-24T22:14:15.576Z,21.90
2019-03-24T22:16:46.959Z,22.37
2019-03-24T22:19:18.425Z,20.10
2019-03-24T22:21:49.570Z,20.30
2019-03-24T22:24:20.940Z,20.10
2019-03-24T22:26:52.399Z,20.37
2019-03-24T22:29:23.799Z,22.70
2019-03-24T22:31:55.126Z,22.17
2019-03-24T22:34:26.333Z,21.43
2019-03-24T22:36:57.465Z,20.57
2019-03-24T22:39:29.236Z,19.70
2019-03-24T22:42:00.739Z,21.20
2019-03-24T22:44:31.904Z,21.30
2019-03-24T22:47:03.439Z,23.07
2019-03-24T22:49:34.643Z,22.73
2019-03-24T22:52:07.407Z,25.57
2019-03-24T22:54:39.476Z,21.37
2019-03-24T22:57:10.890Z,21.13
2019-03-24T22:59:42.301Z,20.83
2019-03-24T23:02:13.783Z,20.20
2019-03-24T23:04:45.171Z,20.50
2019-03-24T23:07:16.663Z,22.60
2019-03-24T23:09:48.159Z,21.63
2019-03-24T23:12:19.604Z,21.43
2019-03-24T23:14:50.862Z,19.53
2019-03-24T23:17:22.213Z,19.43
2019-03-24T23:19:53.870Z,19.17
2019-03-24T23:22:25.208Z,17.63
2019-03-24T23:24:56.566Z,17.73
2019-03-24T23:27:27.965Z,16.13
2019-03-24T23:29:59.372Z,16.50
2019-03-24T23:32:30.734Z,15.67
2019-03-24T23:35:02.327Z,15.93
2019-03-24T23:37:33.654Z,19.53
2019-03-24T23:40:05.613Z,22.10
2019-03-24T23:42:36.968Z,20.97
2019-03-24T23:45:11.955Z,20.83
2019-03-24T23:47:43.344Z,19.53
2019-03-24T23:50:15.030Z,20.00
2019-03-24T23:52:46.325Z,20.37
2019-03-24T23:55:18.099Z,20.43
2019-03-24T23:57:49.650Z,19.50
